sensor_id;sensor_type;location;lat;lon;timestamp;pressure;altitude;pressure_sealevel;temperature
19040;BMP180;9652;49.014;12.052;2024-02-21T00:01:39;98744.00;;;10.40
19040;BMP180;9652;49.014;12.052;2024-02-21T00:04:06;98742.00;;;10.40
19040;BMP180;9652;49.014;12.052;2024-02-21T00:06:33;98745.00;;;10.40
19040;BMP180;9652;49.014;12.052;2024-02-21T00:09:00;98723.00;;;10.40
19040;BMP180;9652;49.014;12.052;2024-02-21T00:11:28;98729.00;;;10.40
19040;BMP180;9652;49.014;12.052;2024-02-21T00:13:55;98730.00;;;10.50
19040;BMP180;9652;49.014;12.052;2024-02-21T00:16:22;98725.00;;;10.50
19040;BMP180;9652;49.014;12.052;2024-02-21T00:18:51;98720.00;;;10.50
19040;BMP180;9652;49.014;12.052;2024-02-21T00:21:18;98706.00;;;10.50
19040;BMP180;9652;49.014;12.052;2024-02-21T00:23:45;98715.00;;;10.50
19040;BMP180;9652;49.014;12.052;2024-02-21T00:26:12;98720.00;;;10.50
19040;BMP180;9652;49.014;12.052;2024-02-21T00:28:40;98713.00;;;10.50
19040;BMP180;9652;49.014;12.052;2024-02-21T00:31:07;98712.00;;;10.40
19040;BMP180;9652;49.014;12.052;2024-02-21T00:33:34;98715.00;;;10.40
19040;BMP180;9652;49.014;12.052;2024-02-21T00:36:03;98708.00;;;10.40
19040;BMP180;9652;49.014;12.052;2024-02-21T00:38:30;98709.00;;;10.40
19040;BMP180;9652;49.014;12.052;2024-02-21T00:40:57;98651.00;;;10.40
19040;BMP180;9652;49.014;12.052;2024-02-21T00:43:24;98701.00;;;10.40
19040;BMP180;9652;49.014;12.052;2024-02-21T00:45:51;98706.00;;;10.40
19040;BMP180;9652;49.014;12.052;2024-02-21T00:48:18;98714.00;;;10.40
19040;BMP180;9652;49.014;12.052;2024-02-21T00:50:45;98699.00;;;10.40
19040;BMP180;9652;49.014;12.052;2024-02-21T00:53:14;98701.00;;;10.40
19040;BMP180;9652;49.014;12.052;2024-02-21T00:55:41;98687.00;;;10.40
19040;BMP180;9652;49.014;12.052;2024-02-21T00:58:09;98711.00;;;10.40
19040;BMP180;9652;49.014;12.052;2024-02-21T01:00:36;98708.00;;;10.40
19040;BMP180;9652;49.014;12.052;2024-02-21T01:03:03;98701.00;;;10.30
19040;BMP180;9652;49.014;12.052;2024-02-21T01:05:30;98689.00;;;10.30
19040;BMP180;9652;49.014;12.052;2024-02-21T01:07:58;98682.00;;;10.30
19040;BMP180;9652;49.014;12.052;2024-02-21T01:10:26;98694.00;;;10.30
19040;BMP180;9652;49.014;12.052;2024-02-21T01:12:53;98681.00;;;10.20
19040;BMP180;9652;49.014;12.052;2024-02-21T01:15:20;98688.00;;;10.20
19040;BMP180;9652;49.014;12.052;2024-02-21T01:17:47;98671.00;;;10.20
19040;BMP180;9652;49.014;12.052;2024-02-21T01:20:15;98668.00;;;10.20
19040;BMP180;9652;49.014;12.052;2024-02-21T01:22:43;98684.00;;;10.20
19040;BMP180;9652;49.014;12.052;2024-02-21T01:25:10;98691.00;;;10.20
19040;BMP180;9652;49.014;12.052;2024-02-21T01:27:38;98671.00;;;10.20
19040;BMP180;9652;49.014;12.052;2024-02-21T01:30:07;98679.00;;;10.20
19040;BMP180;9652;49.014;12.052;2024-02-21T01:32:36;98671.00;;;10.10
19040;BMP180;9652;49.014;12.052;2024-02-21T01:35:04;98672.00;;;10.10
19040;BMP180;9652;49.014;12.052;2024-02-21T01:37:31;98672.00;;;10.10
19040;BMP180;9652;49.014;12.052;2024-02-21T01:39:58;98662.00;;;10.10
19040;BMP180;9652;49.014;12.052;2024-02-21T01:42:25;98663.00;;;10.10
19040;BMP180;9652;49.014;12.052;2024-02-21T01:44:54;98663.00;;;10.10
19040;BMP180;9652;49.014;12.052;2024-02-21T01:47:21;98645.00;;;10.10
19040;BMP180;9652;49.014;12.052;2024-02-21T01:49:49;98652.00;;;10.10
19040;BMP180;9652;49.014;12.052;2024-02-21T01:52:17;98648.00;;;10.00
19040;BMP180;9652;49.014;12.052;2024-02-21T01:54:46;98618.00;;;10.10
19040;BMP180;9652;49.014;12.052;2024-02-21T01:57:14;98640.00;;;10.00
19040;BMP180;9652;49.014;12.052;2024-02-21T01:59:42;98639.00;;;10.00
19040;BMP180;9652;49.014;12.052;2024-02-21T02:02:10;98633.00;;;10.00
19040;BMP180;9652;49.014;12.052;2024-02-21T02:04:38;98601.00;;;10.00
19040;BMP180;9652;49.014;12.052;2024-02-21T02:07:07;98474.00;;;10.00
19040;BMP180;9652;49.014;12.052;2024-02-21T02:09:34;98630.00;;;10.00
19040;BMP180;9652;49.014;12.052;2024-02-21T02:12:02;98630.00;;;10.00
19040;BMP180;9652;49.014;12.052;2024-02-21T02:14:30;98624.00;;;10.00
19040;BMP180;9652;49.014;12.052;2024-02-21T02:16:57;98608.00;;;10.00
19040;BMP180;9652;49.014;12.052;2024-02-21T02:19:25;98618.00;;;10.00
19040;BMP180;9652;49.014;12.052;2024-02-21T02:21:59;98621.00;;;9.90
19040;BMP180;9652;49.014;12.052;2024-02-21T02:24:28;98597.00;;;10.00
19040;BMP180;9652;49.014;12.052;2024-02-21T02:26:55;98615.00;;;10.00
19040;BMP180;9652;49.014;12.052;2024-02-21T02:29:22;98606.00;;;9.90
19040;BMP180;9652;49.014;12.052;2024-02-21T02:31:49;98595.00;;;9.90
19040;BMP180;9652;49.014;12.052;2024-02-21T02:34:16;98621.00;;;9.90
19040;BMP180;9652;49.014;12.052;2024-02-21T02:36:43;98596.00;;;9.80
19040;BMP180;9652;49.014;12.052;2024-02-21T02:39:11;98598.00;;;9.90
19040;BMP180;9652;49.014;12.052;2024-02-21T02:41:39;98586.00;;;9.90
19040;BMP180;9652;49.014;12.052;2024-02-21T02:44:06;98593.00;;;10.00
19040;BMP180;9652;49.014;12.052;2024-02-21T02:46:33;98586.00;;;9.90
19040;BMP180;9652;49.014;12.052;2024-02-21T02:49:00;98573.00;;;10.00
19040;BMP180;9652;49.014;12.052;2024-02-21T02:51:28;98578.00;;;10.00
19040;BMP180;9652;49.014;12.052;2024-02-21T02:53:55;98575.00;;;10.00
19040;BMP180;9652;49.014;12.052;2024-02-21T02:56:23;98572.00;;;10.00
19040;BMP180;9652;49.014;12.052;2024-02-21T02:58:51;98579.00;;;10.00
19040;BMP180;9652;49.014;12.052;2024-02-21T03:01:18;98566.00;;;10.00
19040;BMP180;9652;49.014;12.052;2024-02-21T03:03:45;98561.00;;;10.00
19040;BMP180;9652;49.014;12.052;2024-02-21T03:06:13;98561.00;;;10.00
19040;BMP180;9652;49.014;12.052;2024-02-21T03:08:40;98568.00;;;10.00
19040;BMP180;9652;49.014;12.052;2024-02-21T03:11:08;98570.00;;;10.00
19040;BMP180;9652;49.014;12.052;2024-02-21T03:13:36;98475.00;;;10.00
19040;BMP180;9652;49.014;12.052;2024-02-21T03:16:06;98552.00;;;10.00
19040;BMP180;9652;49.014;12.052;2024-02-21T03:18:33;98523.00;;;10.00
19040;BMP180;9652;49.014;12.052;2024-02-21T03:21:00;98562.00;;;10.00
19040;BMP180;9652;49.014;12.052;2024-02-21T03:23:27;98572.00;;;10.00
19040;BMP180;9652;49.014;12.052;2024-02-21T03:25:54;98566.00;;;10.00
19040;BMP180;9652;49.014;12.052;2024-02-21T03:28:21;98561.00;;;10.00
19040;BMP180;9652;49.014;12.052;2024-02-21T03:30:48;98560.00;;;10.00
19040;BMP180;9652;49.014;12.052;2024-02-21T03:33:16;98552.00;;;10.00
19040;BMP180;9652;49.014;12.052;2024-02-21T03:35:45;98556.00;;;10.00
19040;BMP180;9652;49.014;12.052;2024-02-21T03:38:12;98554.00;;;10.00
19040;BMP180;9652;49.014;12.052;2024-02-21T03:40:40;98549.00;;;10.00
19040;BMP180;9652;49.014;12.052;2024-02-21T03:43:07;98544.00;;;10.00
19040;BMP180;9652;49.014;12.052;2024-02-21T03:45:34;98545.00;;;10.00
19040;BMP180;9652;49.014;12.052;2024-02-21T03:48:01;98539.00;;;10.00
19040;BMP180;9652;49.014;12.052;2024-02-21T03:50:29;98539.00;;;9.90
19040;BMP180;9652;49.014;12.052;2024-02-21T03:52:56;98549.00;;;9.90
19040;BMP180;9652;49.014;12.052;2024-02-21T03:55:23;98558.00;;;9.90
19040;BMP180;9652;49.014;12.052;2024-02-21T03:57:50;98551.00;;;9.90
19040;BMP180;9652;49.014;12.052;2024-02-21T04:00:18;98546.00;;;9.90
19040;BMP180;9652;49.014;12.052;2024-02-21T04:02:45;98524.00;;;9.90
19040;BMP180;9652;49.014;12.052;2024-02-21T04:05:16;98547.00;;;9.90
19040;BMP180;9652;49.014;12.052;2024-02-21T04:07:44;98531.00;;;9.90
19040;BMP180;9652;49.014;12.052;2024-02-21T04:10:12;98541.00;;;9.90
19040;BMP180;9652;49.014;12.052;2024-02-21T04:12:39;98530.00;;;9.90
19040;BMP180;9652;49.014;12.052;2024-02-21T04:15:07;98526.00;;;9.90
19040;BMP180;9652;49.014;12.052;2024-02-21T04:17:35;98516.00;;;9.90
19040;BMP180;9652;49.014;12.052;2024-02-21T04:20:04;98541.00;;;9.90
19040;BMP180;9652;49.014;12.052;2024-02-21T04:22:33;98534.00;;;9.90
19040;BMP180;9652;49.014;12.052;2024-02-21T04:25:02;98530.00;;;9.90
19040;BMP180;9652;49.014;12.052;2024-02-21T04:27:29;98518.00;;;9.90
19040;BMP180;9652;49.014;12.052;2024-02-21T04:29:56;98509.00;;;9.90
19040;BMP180;9652;49.014;12.052;2024-02-21T04:32:23;98504.00;;;9.90
19040;BMP180;9652;49.014;12.052;2024-02-21T04:34:53;98515.00;;;9.90
19040;BMP180;9652;49.014;12.052;2024-02-21T04:37:20;98510.00;;;9.90
19040;BMP180;9652;49.014;12.052;2024-02-21T04:39:48;98517.00;;;9.90
19040;BMP180;9652;49.014;12.052;2024-02-21T04:42:17;98495.00;;;9.80
19040;BMP180;9652;49.014;12.052;2024-02-21T04:44:44;98500.00;;;9.90
19040;BMP180;9652;49.014;12.052;2024-02-21T04:47:12;98494.00;;;9.90
19040;BMP180;9652;49.014;12.052;2024-02-21T04:49:39;98498.00;;;9.90
19040;BMP180;9652;49.014;12.052;2024-02-21T04:52:06;98500.00;;;9.90
19040;BMP180;9652;49.014;12.052;2024-02-21T04:54:34;98483.00;;;9.90
19040;BMP180;9652;49.014;12.052;2024-02-21T04:57:01;98490.00;;;9.90
19040;BMP180;9652;49.014;12.052;2024-02-21T04:59:30;98489.00;;;9.90
19040;BMP180;9652;49.014;12.052;2024-02-21T05:01:57;98486.00;;;10.00
19040;BMP180;9652;49.014;12.052;2024-02-21T05:04:24;98488.00;;;10.00
19040;BMP180;9652;49.014;12.052;2024-02-21T05:06:51;98492.00;;;10.00
19040;BMP180;9652;49.014;12.052;2024-02-21T05:09:18;98493.00;;;10.00
19040;BMP180;9652;49.014;12.052;2024-02-21T05:11:45;98491.00;;;10.00
19040;BMP180;9652;49.014;12.052;2024-02-21T05:14:13;98483.00;;;10.00
19040;BMP180;9652;49.014;12.052;2024-02-21T05:16:41;98478.00;;;10.00
19040;BMP180;9652;49.014;12.052;2024-02-21T05:19:09;98477.00;;;10.00
19040;BMP180;9652;49.014;12.052;2024-02-21T05:21:36;98474.00;;;10.00
19040;BMP180;9652;49.014;12.052;2024-02-21T05:24:04;98472.00;;;10.00
19040;BMP180;9652;49.014;12.052;2024-02-21T05:26:32;98456.00;;;10.00
19040;BMP180;9652;49.014;12.052;2024-02-21T05:28:59;98463.00;;;10.00
19040;BMP180;9652;49.014;12.052;2024-02-21T05:31:26;98461.00;;;10.00
19040;BMP180;9652;49.014;12.052;2024-02-21T05:34:11;98433.00;;;10.10
19040;BMP180;9652;49.014;12.052;2024-02-21T05:36:38;98444.00;;;10.10
19040;BMP180;9652;49.014;12.052;2024-02-21T05:39:05;98438.00;;;10.10
19040;BMP180;9652;49.014;12.052;2024-02-21T05:41:33;98448.00;;;10.10
19040;BMP180;9652;49.014;12.052;2024-02-21T05:44:00;98429.00;;;10.10
19040;BMP180;9652;49.014;12.052;2024-02-21T05:46:27;98406.00;;;10.10
19040;BMP180;9652;49.014;12.052;2024-02-21T05:48:54;98443.00;;;10.10
19040;BMP180;9652;49.014;12.052;2024-02-21T05:51:23;98441.00;;;10.10
19040;BMP180;9652;49.014;12.052;2024-02-21T05:53:50;98440.00;;;10.10
19040;BMP180;9652;49.014;12.052;2024-02-21T05:56:17;98446.00;;;10.10
19040;BMP180;9652;49.014;12.052;2024-02-21T05:58:45;98422.00;;;10.00
19040;BMP180;9652;49.014;12.052;2024-02-21T06:01:12;98407.00;;;10.00
19040;BMP180;9652;49.014;12.052;2024-02-21T06:03:39;98425.00;;;10.10
19040;BMP180;9652;49.014;12.052;2024-02-21T06:06:06;98435.00;;;10.10
19040;BMP180;9652;49.014;12.052;2024-02-21T06:08:35;98442.00;;;10.10
19040;BMP180;9652;49.014;12.052;2024-02-21T06:11:02;98421.00;;;10.10
19040;BMP180;9652;49.014;12.052;2024-02-21T06:13:29;98422.00;;;10.10
19040;BMP180;9652;49.014;12.052;2024-02-21T06:15:56;98428.00;;;10.10
19040;BMP180;9652;49.014;12.052;2024-02-21T06:18:23;98425.00;;;10.00
19040;BMP180;9652;49.014;12.052;2024-02-21T06:20:50;98417.00;;;10.10
19040;BMP180;9652;49.014;12.052;2024-02-21T06:23:17;98403.00;;;10.00
19040;BMP180;9652;49.014;12.052;2024-02-21T06:25:46;98424.00;;;10.00
19040;BMP180;9652;49.014;12.052;2024-02-21T06:28:14;98435.00;;;10.00
19040;BMP180;9652;49.014;12.052;2024-02-21T06:30:41;98411.00;;;10.00
19040;BMP180;9652;49.014;12.052;2024-02-21T06:33:08;98431.00;;;10.00
19040;BMP180;9652;49.014;12.052;2024-02-21T06:35:35;98437.00;;;10.00
19040;BMP180;9652;49.014;12.052;2024-02-21T06:38:02;98432.00;;;10.00
19040;BMP180;9652;49.014;12.052;2024-02-21T06:40:29;98430.00;;;10.10
19040;BMP180;9652;49.014;12.052;2024-02-21T06:43:05;98448.00;;;10.00
19040;BMP180;9652;49.014;12.052;2024-02-21T06:45:32;98438.00;;;10.10
19040;BMP180;9652;49.014;12.052;2024-02-21T06:48:00;98443.00;;;10.10
19040;BMP180;9652;49.014;12.052;2024-02-21T06:50:27;98382.00;;;10.10
19040;BMP180;9652;49.014;12.052;2024-02-21T06:52:54;98424.00;;;10.10
19040;BMP180;9652;49.014;12.052;2024-02-21T06:55:21;98453.00;;;10.10
19040;BMP180;9652;49.014;12.052;2024-02-21T06:57:48;98395.00;;;10.20
19040;BMP180;9652;49.014;12.052;2024-02-21T07:00:18;98455.00;;;10.20
19040;BMP180;9652;49.014;12.052;2024-02-21T07:02:45;98444.00;;;10.20
19040;BMP180;9652;49.014;12.052;2024-02-21T07:05:12;98442.00;;;10.20
19040;BMP180;9652;49.014;12.052;2024-02-21T07:07:39;98428.00;;;10.20
19040;BMP180;9652;49.014;12.052;2024-02-21T07:10:07;98432.00;;;10.20
19040;BMP180;9652;49.014;12.052;2024-02-21T07:12:34;98424.00;;;10.30
19040;BMP180;9652;49.014;12.052;2024-02-21T07:15:05;98433.00;;;10.00
19040;BMP180;9652;49.014;12.052;2024-02-21T07:17:33;98424.00;;;10.30
19040;BMP180;9652;49.014;12.052;2024-02-21T07:20:00;98454.00;;;10.40
19040;BMP180;9652;49.014;12.052;2024-02-21T07:22:28;98461.00;;;10.40
19040;BMP180;9652;49.014;12.052;2024-02-21T07:24:55;98439.00;;;10.50
19040;BMP180;9652;49.014;12.052;2024-02-21T07:27:22;98455.00;;;10.50
19040;BMP180;9652;49.014;12.052;2024-02-21T07:29:53;98475.00;;;10.50
19040;BMP180;9652;49.014;12.052;2024-02-21T07:32:21;98474.00;;;10.50
19040;BMP180;9652;49.014;12.052;2024-02-21T07:34:49;98466.00;;;10.60
19040;BMP180;9652;49.014;12.052;2024-02-21T07:37:16;98469.00;;;10.60
19040;BMP180;9652;49.014;12.052;2024-02-21T07:39:43;98463.00;;;10.60
19040;BMP180;9652;49.014;12.052;2024-02-21T07:42:10;98457.00;;;10.60
19040;BMP180;9652;49.014;12.052;2024-02-21T07:44:37;98456.00;;;10.60
19040;BMP180;9652;49.014;12.052;2024-02-21T07:47:04;98449.00;;;10.60
19040;BMP180;9652;49.014;12.052;2024-02-21T07:49:32;98435.00;;;10.50
19040;BMP180;9652;49.014;12.052;2024-02-21T07:52:02;98455.00;;;10.50
19040;BMP180;9652;49.014;12.052;2024-02-21T07:54:30;98424.00;;;10.50
19040;BMP180;9652;49.014;12.052;2024-02-21T07:56:58;98431.00;;;10.50
19040;BMP180;9652;49.014;12.052;2024-02-21T07:59:25;98402.00;;;10.50
19040;BMP180;9652;49.014;12.052;2024-02-21T08:01:56;98401.00;;;10.50
19040;BMP180;9652;49.014;12.052;2024-02-21T08:04:23;98382.00;;;10.40
19040;BMP180;9652;49.014;12.052;2024-02-21T08:06:52;98401.00;;;10.50
19040;BMP180;9652;49.014;12.052;2024-02-21T08:09:22;98391.00;;;10.60
19040;BMP180;9652;49.014;12.052;2024-02-21T08:11:50;98369.00;;;10.60
19040;BMP180;9652;49.014;12.052;2024-02-21T08:14:17;98363.00;;;10.60
19040;BMP180;9652;49.014;12.052;2024-02-21T08:16:44;98383.00;;;10.60
19040;BMP180;9652;49.014;12.052;2024-02-21T08:19:11;98384.00;;;10.70
19040;BMP180;9652;49.014;12.052;2024-02-21T08:21:39;98387.00;;;10.70
19040;BMP180;9652;49.014;12.052;2024-02-21T08:24:06;98381.00;;;10.70
19040;BMP180;9652;49.014;12.052;2024-02-21T08:26:34;98388.00;;;10.80
19040;BMP180;9652;49.014;12.052;2024-02-21T08:29:01;98387.00;;;10.80
19040;BMP180;9652;49.014;12.052;2024-02-21T08:31:29;98391.00;;;10.90
19040;BMP180;9652;49.014;12.052;2024-02-21T08:33:58;98385.00;;;10.90
19040;BMP180;9652;49.014;12.052;2024-02-21T08:36:28;98379.00;;;10.90
19040;BMP180;9652;49.014;12.052;2024-02-21T08:38:55;98379.00;;;11.00
19040;BMP180;9652;49.014;12.052;2024-02-21T08:41:23;98365.00;;;11.00
19040;BMP180;9652;49.014;12.052;2024-02-21T08:43:53;98383.00;;;11.10
19040;BMP180;9652;49.014;12.052;2024-02-21T08:46:20;98388.00;;;11.20
19040;BMP180;9652;49.014;12.052;2024-02-21T08:48:48;98391.00;;;11.20
19040;BMP180;9652;49.014;12.052;2024-02-21T08:51:15;98371.00;;;11.30
19040;BMP180;9652;49.014;12.052;2024-02-21T08:53:42;98400.00;;;11.40
19040;BMP180;9652;49.014;12.052;2024-02-21T08:56:09;98387.00;;;11.50
19040;BMP180;9652;49.014;12.052;2024-02-21T08:58:36;98371.00;;;11.50
19040;BMP180;9652;49.014;12.052;2024-02-21T09:01:06;98367.00;;;11.60
19040;BMP180;9652;49.014;12.052;2024-02-21T09:03:37;98358.00;;;11.60
19040;BMP180;9652;49.014;12.052;2024-02-21T09:06:05;98363.00;;;11.70
19040;BMP180;9652;49.014;12.052;2024-02-21T09:08:32;98351.00;;;11.80
19040;BMP180;9652;49.014;12.052;2024-02-21T09:11:00;98339.00;;;11.90
19040;BMP180;9652;49.014;12.052;2024-02-21T09:13:28;98351.00;;;11.90
19040;BMP180;9652;49.014;12.052;2024-02-21T09:15:56;98325.00;;;12.00
19040;BMP180;9652;49.014;12.052;2024-02-21T09:18:24;98339.00;;;12.10
19040;BMP180;9652;49.014;12.052;2024-02-21T09:20:51;98344.00;;;12.20
19040;BMP180;9652;49.014;12.052;2024-02-21T09:23:18;98326.00;;;12.20
19040;BMP180;9652;49.014;12.052;2024-02-21T09:25:46;98345.00;;;12.30
19040;BMP180;9652;49.014;12.052;2024-02-21T09:28:13;98340.00;;;12.40
19040;BMP180;9652;49.014;12.052;2024-02-21T09:30:40;98351.00;;;12.40
19040;BMP180;9652;49.014;12.052;2024-02-21T09:33:07;98342.00;;;12.50
19040;BMP180;9652;49.014;12.052;2024-02-21T09:35:35;98338.00;;;12.50
19040;BMP180;9652;49.014;12.052;2024-02-21T09:38:03;98344.00;;;12.60
19040;BMP180;9652;49.014;12.052;2024-02-21T09:40:30;98335.00;;;12.70
19040;BMP180;9652;49.014;12.052;2024-02-21T09:43:03;98319.00;;;12.70
19040;BMP180;9652;49.014;12.052;2024-02-21T09:45:34;98324.00;;;12.80
19040;BMP180;9652;49.014;12.052;2024-02-21T09:48:23;98328.00;;;12.90
19040;BMP180;9652;49.014;12.052;2024-02-21T09:50:56;98317.00;;;12.90
19040;BMP180;9652;49.014;12.052;2024-02-21T09:53:24;98313.00;;;13.00
19040;BMP180;9652;49.014;12.052;2024-02-21T09:55:53;98304.00;;;13.10
19040;BMP180;9652;49.014;12.052;2024-02-21T09:58:21;98274.00;;;13.10
19040;BMP180;9652;49.014;12.052;2024-02-21T10:00:49;98297.00;;;13.20
19040;BMP180;9652;49.014;12.052;2024-02-21T10:03:16;98295.00;;;13.30
19040;BMP180;9652;49.014;12.052;2024-02-21T10:05:48;98303.00;;;13.30
19040;BMP180;9652;49.014;12.052;2024-02-21T10:08:19;98297.00;;;13.40
19040;BMP180;9652;49.014;12.052;2024-02-21T10:10:46;98304.00;;;13.50
19040;BMP180;9652;49.014;12.052;2024-02-21T10:13:25;98285.00;;;13.50
19040;BMP180;9652;49.014;12.052;2024-02-21T10:16:04;98301.00;;;13.60
19040;BMP180;9652;49.014;12.052;2024-02-21T10:18:32;98307.00;;;13.60
19040;BMP180;9652;49.014;12.052;2024-02-21T10:21:04;98272.00;;;13.70
19040;BMP180;9652;49.014;12.052;2024-02-21T10:23:48;98290.00;;;13.70
19040;BMP180;9652;49.014;12.052;2024-02-21T10:26:18;98281.00;;;13.80
19040;BMP180;9652;49.014;12.052;2024-02-21T10:28:46;98294.00;;;13.90
19040;BMP180;9652;49.014;12.052;2024-02-21T10:31:23;98285.00;;;13.90
19040;BMP180;9652;49.014;12.052;2024-02-21T10:33:55;98288.00;;;14.00
19040;BMP180;9652;49.014;12.052;2024-02-21T10:36:24;98286.00;;;14.00
19040;BMP180;9652;49.014;12.052;2024-02-21T10:38:53;98286.00;;;14.10
19040;BMP180;9652;49.014;12.052;2024-02-21T10:41:22;98287.00;;;14.10
19040;BMP180;9652;49.014;12.052;2024-02-21T10:43:52;98274.00;;;14.20
19040;BMP180;9652;49.014;12.052;2024-02-21T10:46:22;98205.00;;;14.20
19040;BMP180;9652;49.014;12.052;2024-02-21T10:49:01;98257.00;;;14.00
19040;BMP180;9652;49.014;12.052;2024-02-21T10:51:34;98249.00;;;14.40
19040;BMP180;9652;49.014;12.052;2024-02-21T10:54:25;98249.00;;;14.50
19040;BMP180;9652;49.014;12.052;2024-02-21T10:56:58;98218.00;;;14.60
19040;BMP180;9652;49.014;12.052;2024-02-21T10:59:28;98237.00;;;14.60
19040;BMP180;9652;49.014;12.052;2024-02-21T11:01:56;98231.00;;;14.70
19040;BMP180;9652;49.014;12.052;2024-02-21T11:04:24;98226.00;;;14.80
19040;BMP180;9652;49.014;12.052;2024-02-21T11:06:52;98216.00;;;14.90
19040;BMP180;9652;49.014;12.052;2024-02-21T11:09:30;98213.00;;;15.00
19040;BMP180;9652;49.014;12.052;2024-02-21T11:12:01;98212.00;;;15.10
19040;BMP180;9652;49.014;12.052;2024-02-21T11:14:29;98197.00;;;15.10
19040;BMP180;9652;49.014;12.052;2024-02-21T11:16:58;98184.00;;;15.20
19040;BMP180;9652;49.014;12.052;2024-02-21T11:19:27;98194.00;;;15.20
19040;BMP180;9652;49.014;12.052;2024-02-21T11:21:56;98194.00;;;15.30
19040;BMP180;9652;49.014;12.052;2024-02-21T11:24:30;98187.00;;;15.40
19040;BMP180;9652;49.014;12.052;2024-02-21T11:27:09;98180.00;;;15.40
19040;BMP180;9652;49.014;12.052;2024-02-21T11:29:42;98169.00;;;15.40
19040;BMP180;9652;49.014;12.052;2024-02-21T11:32:10;98168.00;;;15.50
19040;BMP180;9652;49.014;12.052;2024-02-21T11:34:38;98156.00;;;15.50
19040;BMP180;9652;49.014;12.052;2024-02-21T11:37:14;98158.00;;;15.50
19040;BMP180;9652;49.014;12.052;2024-02-21T11:39:44;98156.00;;;15.60
19040;BMP180;9652;49.014;12.052;2024-02-21T11:42:11;98156.00;;;15.60
19040;BMP180;9652;49.014;12.052;2024-02-21T11:44:39;98141.00;;;15.60
19040;BMP180;9652;49.014;12.052;2024-02-21T11:47:08;98141.00;;;15.70
19040;BMP180;9652;49.014;12.052;2024-02-21T11:49:38;98134.00;;;15.70
19040;BMP180;9652;49.014;12.052;2024-02-21T11:52:06;98143.00;;;15.80
19040;BMP180;9652;49.014;12.052;2024-02-21T11:54:34;98125.00;;;15.80
19040;BMP180;9652;49.014;12.052;2024-02-21T11:57:02;98141.00;;;15.80
19040;BMP180;9652;49.014;12.052;2024-02-21T11:59:31;98128.00;;;15.90
19040;BMP180;9652;49.014;12.052;2024-02-21T12:01:59;98103.00;;;15.90
19040;BMP180;9652;49.014;12.052;2024-02-21T12:04:27;98120.00;;;15.90
19040;BMP180;9652;49.014;12.052;2024-02-21T12:06:56;98077.00;;;16.00
19040;BMP180;9652;49.014;12.052;2024-02-21T12:09:25;98107.00;;;16.00
19040;BMP180;9652;49.014;12.052;2024-02-21T12:11:59;98103.00;;;16.00
19040;BMP180;9652;49.014;12.052;2024-02-21T12:14:29;98105.00;;;16.00
19040;BMP180;9652;49.014;12.052;2024-02-21T12:16:57;98104.00;;;16.10
19040;BMP180;9652;49.014;12.052;2024-02-21T12:19:25;98076.00;;;16.20
19040;BMP180;9652;49.014;12.052;2024-02-21T12:21:53;98090.00;;;16.20
19040;BMP180;9652;49.014;12.052;2024-02-21T12:24:23;98041.00;;;16.30
19040;BMP180;9652;49.014;12.052;2024-02-21T12:26:51;98083.00;;;16.30
19040;BMP180;9652;49.014;12.052;2024-02-21T12:29:19;98084.00;;;16.40
19040;BMP180;9652;49.014;12.052;2024-02-21T12:31:47;98080.00;;;16.50
19040;BMP180;9652;49.014;12.052;2024-02-21T12:34:15;98058.00;;;16.70
19040;BMP180;9652;49.014;12.052;2024-02-21T12:36:44;98069.00;;;16.80
19040;BMP180;9652;49.014;12.052;2024-02-21T12:39:13;98046.00;;;16.80
19040;BMP180;9652;49.014;12.052;2024-02-21T12:41:42;98075.00;;;16.90
19040;BMP180;9652;49.014;12.052;2024-02-21T12:44:10;98060.00;;;16.90
19040;BMP180;9652;49.014;12.052;2024-02-21T12:46:38;98055.00;;;17.00
19040;BMP180;9652;49.014;12.052;2024-02-21T12:49:07;98056.00;;;17.00
19040;BMP180;9652;49.014;12.052;2024-02-21T12:51:35;98043.00;;;17.00
19040;BMP180;9652;49.014;12.052;2024-02-21T12:54:02;98056.00;;;16.90
19040;BMP180;9652;49.014;12.052;2024-02-21T12:56:29;98039.00;;;17.00
19040;BMP180;9652;49.014;12.052;2024-02-21T12:58:57;98031.00;;;16.90
19040;BMP180;9652;49.014;12.052;2024-02-21T13:01:24;98029.00;;;16.90
19040;BMP180;9652;49.014;12.052;2024-02-21T13:03:51;97989.00;;;16.90
19040;BMP180;9652;49.014;12.052;2024-02-21T13:06:21;98031.00;;;16.90
19040;BMP180;9652;49.014;12.052;2024-02-21T13:08:48;98024.00;;;16.90
19040;BMP180;9652;49.014;12.052;2024-02-21T13:11:15;98021.00;;;16.90
19040;BMP180;9652;49.014;12.052;2024-02-21T13:13:42;98016.00;;;16.90
19040;BMP180;9652;49.014;12.052;2024-02-21T13:16:09;98003.00;;;16.90
19040;BMP180;9652;49.014;12.052;2024-02-21T13:18:37;98004.00;;;16.90
19040;BMP180;9652;49.014;12.052;2024-02-21T13:21:05;98002.00;;;17.00
19040;BMP180;9652;49.014;12.052;2024-02-21T13:23:34;97986.00;;;17.00
19040;BMP180;9652;49.014;12.052;2024-02-21T13:26:01;97986.00;;;16.90
19040;BMP180;9652;49.014;12.052;2024-02-21T13:28:28;97970.00;;;16.90
19040;BMP180;9652;49.014;12.052;2024-02-21T13:30:55;97979.00;;;16.90
19040;BMP180;9652;49.014;12.052;2024-02-21T13:33:23;97972.00;;;16.90
19040;BMP180;9652;49.014;12.052;2024-02-21T13:35:50;97971.00;;;16.90
19040;BMP180;9652;49.014;12.052;2024-02-21T13:38:17;97897.00;;;16.90
19040;BMP180;9652;49.014;12.052;2024-02-21T13:40:46;97946.00;;;16.90
19040;BMP180;9652;49.014;12.052;2024-02-21T13:43:13;97943.00;;;16.90
19040;BMP180;9652;49.014;12.052;2024-02-21T13:45:40;97943.00;;;16.90
19040;BMP180;9652;49.014;12.052;2024-02-21T13:48:08;97930.00;;;16.80
19040;BMP180;9652;49.014;12.052;2024-02-21T13:50:37;97934.00;;;16.80
19040;BMP180;9652;49.014;12.052;2024-02-21T13:53:09;97932.00;;;16.80
19040;BMP180;9652;49.014;12.052;2024-02-21T13:55:36;97923.00;;;16.80
19040;BMP180;9652;49.014;12.052;2024-02-21T13:58:04;97926.00;;;16.80
19040;BMP180;9652;49.014;12.052;2024-02-21T14:00:31;97920.00;;;16.80
19040;BMP180;9652;49.014;12.052;2024-02-21T14:03:00;97912.00;;;16.70
19040;BMP180;9652;49.014;12.052;2024-02-21T14:05:27;97914.00;;;16.30
19040;BMP180;9652;49.014;12.052;2024-02-21T14:07:55;97906.00;;;16.50
19040;BMP180;9652;49.014;12.052;2024-02-21T14:10:22;97901.00;;;16.70
19040;BMP180;9652;49.014;12.052;2024-02-21T14:12:50;97906.00;;;16.70
19040;BMP180;9652;49.014;12.052;2024-02-21T14:15:18;97902.00;;;16.80